Little Eaton, United Kingdom
Current Conditions -  °F | °C
As of 2:20 PM on Friday 28 Nov 2014 (Local Time) from EGNX Reporting Station
Haze Haze  
Wind Chill: 50°   Ceiling: 300
Heat Index: 50°   Visibility: 1.5mi
Dew Point: 50°   Wind: 10mph
Humidity: 100%   Direction: 60°ENE
Pressure: 29.68"   Gusts: NA
Location:  52.97°N, 1.46°W
Report Text: EGNX 281420Z 06009KT 2500 BR BKN003 BKN007 10/10 Q1005
Loading
Personal Weather Stations






























Interactive Weather Map New forecast layout! Learn more

10-Day Weather Forecast

Advertisements
Track Severe Weather on mobile